createdAt,value
2022-12-21T00:04:56.348Z,16.08
2022-12-21T00:11:01.339Z,15.48
2022-12-21T00:17:03.126Z,17.10
2022-12-21T00:23:04.938Z,17.25
2022-12-21T00:29:07.425Z,17.85
2022-12-21T00:35:09.576Z,18.45
2022-12-21T00:41:16.396Z,18.35
2022-12-21T00:47:18.111Z,18.00
2022-12-21T00:53:20.238Z,18.45
2022-12-21T00:59:22.225Z,19.02
2022-12-21T01:05:24.279Z,19.63
2022-12-21T01:11:26.244Z,21.40
2022-12-21T01:17:28.050Z,18.98
2022-12-21T01:23:30.175Z,19.70
2022-12-21T01:29:31.941Z,20.17
2022-12-21T01:35:33.660Z,20.63
2022-12-21T01:41:35.377Z,20.27
2022-12-21T01:47:49.982Z,20.52
2022-12-21T01:53:56.693Z,23.10
2022-12-21T02:00:00.997Z,21.95
2022-12-21T02:06:04.858Z,22.08
2022-12-21T02:12:10.175Z,23.03
2022-12-21T02:18:51.134Z,22.90
2022-12-21T02:25:30.747Z,22.63
2022-12-21T02:31:51.257Z,23.15
2022-12-21T02:38:02.664Z,23.77
2022-12-21T02:44:38.802Z,20.48
2022-12-21T02:50:45.203Z,22.65
2022-12-21T02:56:46.980Z,22.90
2022-12-21T03:03:14.506Z,21.33
2022-12-21T03:09:42.655Z,21.08
2022-12-21T03:15:53.499Z,24.38
2022-12-21T03:22:02.731Z,24.02
2022-12-21T03:28:13.583Z,24.42
2022-12-21T03:34:33.762Z,25.45
2022-12-21T03:40:39.524Z,26.85
2022-12-21T03:46:51.853Z,28.85
2022-12-21T03:53:02.987Z,26.27
2022-12-21T03:59:07.317Z,27.55
2022-12-21T04:05:21.081Z,27.17
2022-12-21T04:11:41.785Z,24.30
2022-12-21T04:17:45.315Z,25.30
2022-12-21T04:24:05.888Z,23.45
2022-12-21T04:30:08.319Z,22.80
2022-12-21T04:36:28.572Z,23.30
2022-12-21T04:42:30.371Z,20.30
2022-12-21T04:48:32.345Z,20.67
2022-12-21T04:54:34.083Z,19.05
2022-12-21T05:00:35.896Z,20.52
2022-12-21T05:06:37.716Z,19.13
2022-12-21T05:12:39.440Z,18.25
2022-12-21T05:18:41.503Z,16.90
2022-12-21T05:24:46.397Z,17.38
2022-12-21T05:30:48.147Z,18.38
2022-12-21T05:36:49.907Z,17.77
2022-12-21T05:42:51.598Z,19.08
2022-12-21T05:48:55.635Z,21.05
2022-12-21T05:54:57.402Z,20.40
2022-12-21T06:01:03.588Z,19.85
2022-12-21T06:07:05.289Z,18.80
2022-12-21T06:13:07.383Z,15.32
2022-12-21T06:19:09.284Z,16.13
2022-12-21T06:25:11.058Z,15.90
2022-12-21T06:31:14.152Z,18.02
2022-12-21T06:37:15.973Z,16.92
2022-12-21T06:43:17.730Z,16.92
2022-12-21T06:49:19.487Z,16.67
2022-12-21T06:55:21.289Z,17.38
2022-12-21T07:01:23.127Z,16.63
2022-12-21T07:07:25.204Z,19.17
2022-12-21T07:13:28.022Z,17.40
2022-12-21T07:19:30.734Z,17.05
2022-12-21T07:25:32.943Z,18.10
2022-12-21T07:31:34.801Z,19.00
2022-12-21T07:37:36.615Z,17.80
2022-12-21T07:43:39.040Z,17.63
2022-12-21T07:49:40.792Z,17.65
2022-12-21T07:55:42.692Z,15.98
2022-12-21T08:01:44.799Z,16.50
2022-12-21T08:07:48.414Z,17.33
2022-12-21T08:13:50.268Z,15.48
2022-12-21T08:19:52.012Z,15.10
2022-12-21T08:25:53.773Z,12.15
2022-12-21T08:31:55.598Z,11.32
2022-12-21T08:37:57.395Z,11.60
2022-12-21T08:43:59.156Z,10.15
2022-12-21T08:50:00.960Z,8.70
2022-12-21T08:56:02.910Z,9.05
2022-12-21T09:02:05.039Z,8.85
2022-12-21T09:08:06.914Z,9.35
2022-12-21T09:14:08.715Z,11.38
2022-12-21T09:20:10.671Z,9.57
2022-12-21T09:26:13.199Z,14.63
2022-12-21T09:32:15.044Z,13.05
2022-12-21T09:38:16.836Z,13.05
2022-12-21T09:44:45.544Z,13.63
2022-12-21T09:51:06.672Z,15.32
2022-12-21T09:57:13.090Z,13.57
2022-12-21T10:03:23.557Z,12.35
2022-12-21T10:09:34.750Z,13.43
2022-12-21T10:16:01.683Z,12.90
2022-12-21T10:22:33.194Z,12.98
2022-12-21T10:28:43.257Z,12.13
2022-12-21T10:34:49.085Z,11.43
2022-12-21T10:40:56.064Z,13.40
2022-12-21T10:46:58.303Z,13.02
2022-12-21T10:53:16.865Z,12.90
2022-12-21T10:59:25.419Z,13.95
2022-12-21T11:05:29.445Z,14.02
2022-12-21T11:11:34.404Z,14.23
2022-12-21T11:17:36.398Z,16.13
2022-12-21T11:23:38.193Z,15.18
2022-12-21T11:29:39.884Z,15.93
2022-12-21T11:36:07.458Z,15.35
2022-12-21T11:42:17.776Z,14.75
2022-12-21T11:48:37.144Z,12.07
2022-12-21T11:54:55.540Z,12.18
2022-12-21T12:01:29.999Z,11.00
2022-12-21T12:08:06.897Z,9.45
2022-12-21T12:14:17.648Z,9.05
2022-12-21T12:20:49.979Z,9.40
2022-12-21T12:27:14.238Z,8.00
2022-12-21T12:33:34.648Z,8.20
2022-12-21T12:40:16.045Z,8.10
2022-12-21T12:46:20.900Z,8.02
2022-12-21T12:52:39.048Z,8.73
2022-12-21T12:59:08.416Z,8.30
2022-12-21T13:05:35.739Z,9.43
2022-12-21T13:12:05.433Z,9.93
2022-12-21T13:18:15.426Z,10.50
2022-12-21T13:24:45.535Z,10.40
2022-12-21T13:30:50.257Z,9.73
2022-12-21T13:43:18.622Z,11.95
2022-12-21T13:49:32.386Z,12.55
2022-12-21T13:55:51.109Z,12.10
2022-12-21T14:02:21.851Z,12.63
2022-12-21T14:08:47.955Z,12.38
2022-12-21T14:15:16.759Z,12.13
2022-12-21T14:21:25.060Z,12.45
2022-12-21T14:27:26.922Z,11.90
2022-12-21T14:33:37.190Z,12.20
2022-12-21T14:39:38.969Z,12.98
2022-12-21T14:45:43.779Z,12.40
2022-12-21T14:51:51.880Z,12.93
2022-12-21T14:57:54.878Z,13.45
2022-12-21T15:04:00.413Z,14.13
2022-12-21T15:10:27.149Z,13.10
2022-12-21T15:16:29.826Z,13.53
2022-12-21T15:22:46.381Z,12.48
2022-12-21T15:28:49.772Z,12.43
2022-12-21T15:34:58.197Z,14.20
2022-12-21T15:41:03.338Z,15.73
2022-12-21T15:47:20.299Z,15.20
2022-12-21T15:53:25.335Z,15.82
2022-12-21T15:59:32.887Z,21.95
2022-12-21T16:05:35.034Z,18.70
2022-12-21T16:18:09.312Z,17.75
2022-12-21T16:24:11.355Z,16.65
2022-12-21T16:30:13.564Z,16.55
2022-12-21T16:36:23.612Z,16.13
2022-12-21T16:42:27.731Z,15.65
2022-12-21T16:48:51.967Z,13.50
2022-12-21T16:54:53.935Z,13.98
2022-12-21T17:00:55.784Z,12.20
2022-12-21T17:07:08.932Z,11.30
2022-12-21T17:13:17.613Z,10.80
2022-12-21T17:19:22.063Z,10.25
2022-12-21T17:25:24.110Z,10.57
2022-12-21T17:31:26.128Z,10.63
2022-12-21T17:37:27.963Z,9.75
2022-12-21T17:43:29.694Z,10.50
2022-12-21T17:49:31.463Z,9.75
2022-12-21T17:55:33.281Z,9.98
2022-12-21T18:01:35.565Z,9.13
2022-12-21T18:07:37.387Z,9.70
2022-12-21T18:13:39.703Z,9.38
2022-12-21T18:19:42.367Z,10.80
2022-12-21T18:25:45.320Z,9.27
2022-12-21T18:31:48.606Z,9.98
2022-12-21T18:37:50.828Z,9.60
2022-12-21T18:43:52.554Z,9.90
2022-12-21T18:49:54.871Z,8.60
2022-12-21T18:55:56.695Z,8.65
2022-12-21T19:01:59.924Z,8.27
2022-12-21T19:08:01.881Z,6.43
2022-12-21T19:14:03.642Z,7.32
2022-12-21T19:20:06.363Z,6.50
2022-12-21T19:26:10.140Z,5.68
2022-12-21T19:32:12.087Z,5.50
2022-12-21T19:38:26.704Z,5.35
2022-12-21T19:44:34.249Z,4.78
2022-12-21T19:50:36.061Z,4.38
2022-12-21T19:56:37.838Z,3.80
2022-12-21T20:02:43.926Z,4.15
2022-12-21T20:08:50.989Z,3.72
2022-12-21T20:14:53.361Z,4.70
2022-12-21T20:20:55.326Z,4.53
2022-12-21T20:27:00.067Z,4.88
2022-12-21T20:39:16.529Z,5.03
2022-12-21T20:45:24.149Z,4.78
2022-12-21T20:51:26.941Z,5.30
2022-12-21T20:57:28.618Z,5.03
2022-12-21T21:03:32.106Z,6.15
2022-12-21T21:09:35.050Z,4.43
2022-12-21T21:15:37.519Z,5.38
2022-12-21T21:21:58.016Z,4.82
2022-12-21T21:28:13.667Z,5.13
2022-12-21T21:34:15.653Z,4.63
2022-12-21T21:40:36.277Z,4.65
2022-12-21T21:46:38.397Z,4.85
2022-12-21T21:52:40.732Z,4.35
2022-12-21T21:58:42.519Z,4.20
2022-12-21T22:04:47.690Z,3.75
2022-12-21T22:10:49.632Z,3.63
2022-12-21T22:23:36.533Z,3.80
2022-12-21T22:30:03.171Z,3.60
2022-12-21T22:36:23.645Z,3.47
2022-12-21T22:42:28.067Z,3.58
2022-12-21T22:48:30.084Z,3.72
2022-12-21T22:54:31.831Z,4.28
2022-12-21T23:00:33.615Z,4.55
2022-12-21T23:06:35.391Z,4.47
2022-12-21T23:12:55.752Z,4.68
2022-12-21T23:18:57.501Z,4.75
2022-12-21T23:25:17.869Z,4.97
2022-12-21T23:31:44.412Z,5.38
2022-12-21T23:38:04.747Z,5.10
2022-12-21T23:44:06.536Z,5.22
2022-12-21T23:50:30.144Z,5.80
2022-12-21T23:56:51.244Z,5.75
